createdAt,value
2018-02-25T00:01:24.182Z,38.03
2018-02-25T00:03:56.913Z,37.98
2018-02-25T00:06:29.847Z,38.10
2018-02-25T00:09:01.356Z,38.26
2018-02-25T00:11:35.540Z,38.09
2018-02-25T00:14:12.469Z,37.91
2018-02-25T00:19:17.574Z,37.97
2018-02-25T00:21:52.922Z,37.59
2018-02-25T00:24:25.591Z,37.43
2018-02-25T00:26:58.577Z,37.19
2018-02-25T00:29:35.571Z,37.32
2018-02-25T00:32:09.279Z,37.56
2018-02-25T00:34:42.249Z,37.49
2018-02-25T00:37:15.968Z,37.68
2018-02-25T00:39:50.066Z,37.92
2018-02-25T00:42:26.508Z,38.02
2018-02-25T00:45:04.382Z,38.11
2018-02-25T00:47:37.523Z,37.80
2018-02-25T00:50:11.114Z,38.01
2018-02-25T00:52:42.646Z,38.06
2018-02-25T00:55:16.051Z,38.13
2018-02-25T00:57:48.409Z,38.14
2018-02-25T01:00:20.163Z,38.25
2018-02-25T01:02:55.086Z,38.23
2018-02-25T01:05:27.510Z,38.38
2018-02-25T01:08:01.314Z,38.42
2018-02-25T01:10:34.569Z,38.46
2018-02-25T01:13:07.407Z,38.35
2018-02-25T01:15:41.803Z,38.35
2018-02-25T01:18:15.035Z,38.30
2018-02-25T01:20:50.615Z,38.49
2018-02-25T01:23:31.762Z,38.50
2018-02-25T01:26:04.456Z,38.58
2018-02-25T01:28:37.475Z,38.59
2018-02-25T01:31:10.057Z,38.41
2018-02-25T01:33:42.582Z,38.49
2018-02-25T01:36:14.516Z,38.63
2018-02-25T01:38:46.414Z,38.68
2018-02-25T01:41:18.340Z,38.42
2018-02-25T01:43:50.298Z,38.26
2018-02-25T01:46:22.933Z,38.45
2018-02-25T01:48:55.620Z,38.42
2018-02-25T01:51:27.717Z,38.61
2018-02-25T01:53:59.763Z,38.40
2018-02-25T01:56:33.135Z,38.32
2018-02-25T01:59:04.900Z,38.38
2018-02-25T02:01:39.664Z,38.30
2018-02-25T02:04:11.831Z,38.36
2018-02-25T02:06:44.960Z,38.51
2018-02-25T02:09:44.359Z,38.64
2018-02-25T02:12:16.682Z,38.75
2018-02-25T02:14:48.741Z,38.75
2018-02-25T02:17:21.631Z,38.91
2018-02-25T02:19:53.561Z,39.01
2018-02-25T02:22:25.751Z,39.33
2018-02-25T02:24:57.770Z,39.27
2018-02-25T02:27:30.447Z,39.29
2018-02-25T02:30:04.676Z,39.38
2018-02-25T02:32:36.766Z,39.58
2018-02-25T02:35:08.538Z,39.73
2018-02-25T02:37:41.176Z,39.78
2018-02-25T02:40:13.508Z,39.82
2018-02-25T02:42:46.601Z,39.93
2018-02-25T02:45:18.998Z,40.14
2018-02-25T02:50:33.663Z,40.26
2018-02-25T02:53:06.402Z,40.26
2018-02-25T02:55:38.347Z,40.34
2018-02-25T02:58:10.301Z,40.36
2018-02-25T03:00:46.228Z,40.47
2018-02-25T03:03:22.017Z,40.66
2018-02-25T03:05:54.195Z,40.79
2018-02-25T03:08:26.327Z,40.79
2018-02-25T03:11:01.625Z,40.85
2018-02-25T03:13:33.904Z,41.00
2018-02-25T03:16:06.570Z,41.21
2018-02-25T03:18:38.769Z,41.31
2018-02-25T03:21:11.075Z,41.57
2018-02-25T03:23:42.823Z,41.87
2018-02-25T03:26:16.003Z,41.69
2018-02-25T03:28:48.290Z,41.77
2018-02-25T03:31:20.227Z,41.81
2018-02-25T03:33:57.593Z,41.88
2018-02-25T03:36:29.261Z,41.97
2018-02-25T03:39:00.900Z,42.11
2018-02-25T03:41:32.983Z,42.16
2018-02-25T03:44:04.360Z,42.37
2018-02-25T03:46:37.737Z,42.33
2018-02-25T03:49:10.084Z,42.44
2018-02-25T03:51:42.787Z,42.54
2018-02-25T03:54:14.369Z,42.51
2018-02-25T03:56:52.236Z,42.40
2018-02-25T03:59:23.658Z,42.46
2018-02-25T04:01:55.879Z,42.58
2018-02-25T04:04:27.376Z,42.77
2018-02-25T04:06:58.775Z,42.75
2018-02-25T04:09:31.052Z,42.70
2018-02-25T04:12:03.867Z,43.03
2018-02-25T04:14:35.326Z,43.05
2018-02-25T04:17:07.463Z,43.01
2018-02-25T04:19:40.261Z,43.10
2018-02-25T04:22:17.375Z,43.32
2018-02-25T04:24:49.405Z,43.36
2018-02-25T04:27:21.829Z,43.01
2018-02-25T04:29:52.869Z,42.91
2018-02-25T04:32:24.499Z,42.90
2018-02-25T04:34:55.600Z,42.78
2018-02-25T04:37:26.688Z,42.73
2018-02-25T04:39:57.677Z,42.75
2018-02-25T04:42:28.772Z,42.72
2018-02-25T04:44:59.861Z,42.65
2018-02-25T04:47:31.923Z,42.54
2018-02-25T04:50:03.454Z,42.49
2018-02-25T04:52:34.482Z,42.43
2018-02-25T04:55:05.667Z,42.53
2018-02-25T04:57:37.822Z,42.58
2018-02-25T05:00:16.878Z,42.60
2018-02-25T05:02:52.738Z,42.54
2018-02-25T05:05:23.697Z,42.51
2018-02-25T05:07:55.822Z,42.23
2018-02-25T05:10:28.127Z,42.18
2018-02-25T05:13:00.249Z,42.14
2018-02-25T05:15:32.075Z,42.14
2018-02-25T05:18:03.607Z,42.28
2018-02-25T05:20:35.035Z,42.30
2018-02-25T05:23:07.310Z,42.38
2018-02-25T05:25:39.052Z,42.52
2018-02-25T05:28:10.324Z,42.42
2018-02-25T05:30:43.115Z,42.45
2018-02-25T05:33:15.946Z,42.58
2018-02-25T05:35:53.969Z,42.29
2018-02-25T05:38:25.640Z,42.21
2018-02-25T05:40:56.838Z,42.29
2018-02-25T05:43:28.243Z,42.05
2018-02-25T05:46:00.521Z,42.19
2018-02-25T05:48:32.841Z,41.99
2018-02-25T05:51:04.992Z,41.93
2018-02-25T05:53:37.499Z,41.85
2018-02-25T05:56:10.068Z,41.87
2018-02-25T05:58:41.662Z,41.75
2018-02-25T06:01:13.458Z,41.74
2018-02-25T06:03:45.694Z,41.64
2018-02-25T06:06:16.959Z,41.43
2018-02-25T06:11:16.078Z,41.50
2018-02-25T06:13:48.039Z,41.24
2018-02-25T06:16:20.606Z,41.13
2018-02-25T06:18:55.635Z,41.04
2018-02-25T06:21:27.916Z,41.38
2018-02-25T06:24:08.817Z,41.09
2018-02-25T06:26:43.824Z,41.38
2018-02-25T06:29:16.721Z,41.35
2018-02-25T06:31:54.523Z,41.07
2018-02-25T06:34:29.272Z,41.12
2018-02-25T06:37:02.889Z,40.90
2018-02-25T06:39:35.366Z,41.26
2018-02-25T06:42:08.132Z,41.50
2018-02-25T06:44:42.017Z,41.47
2018-02-25T06:47:15.196Z,41.41
2018-02-25T06:49:47.713Z,41.43
2018-02-25T06:52:21.335Z,41.39
2018-02-25T06:54:54.041Z,41.46
2018-02-25T06:57:27.748Z,41.41
2018-02-25T06:59:59.680Z,41.50
2018-02-25T07:02:31.807Z,41.54
2018-02-25T07:05:07.896Z,41.90
2018-02-25T07:07:49.607Z,41.76
2018-02-25T07:10:29.953Z,41.96
2018-02-25T07:13:02.202Z,42.03
2018-02-25T07:15:34.229Z,42.20
2018-02-25T07:18:08.512Z,42.23
2018-02-25T07:20:48.986Z,42.34
2018-02-25T07:23:20.952Z,42.45
2018-02-25T07:25:52.968Z,42.23
2018-02-25T07:28:25.082Z,42.24
2018-02-25T07:30:57.185Z,42.13
2018-02-25T07:33:29.229Z,42.07
2018-02-25T07:36:02.169Z,41.93
2018-02-25T07:38:33.948Z,41.70
2018-02-25T07:41:05.754Z,41.55
2018-02-25T07:43:38.383Z,41.44
2018-02-25T07:46:10.810Z,41.53
2018-02-25T07:48:44.524Z,40.94
2018-02-25T07:51:16.504Z,40.38
2018-02-25T07:53:49.565Z,40.18
2018-02-25T07:56:21.612Z,39.65
2018-02-25T07:58:54.259Z,39.38
2018-02-25T08:01:26.748Z,39.33
2018-02-25T08:03:58.685Z,38.67
2018-02-25T08:06:30.404Z,38.99
2018-02-25T08:09:01.812Z,38.52
2018-02-25T08:11:34.175Z,37.96
2018-02-25T08:14:05.929Z,38.03
2018-02-25T08:16:37.838Z,37.91
2018-02-25T08:19:09.902Z,37.77
2018-02-25T08:21:41.619Z,37.34
2018-02-25T08:24:13.255Z,37.10
2018-02-25T08:26:44.978Z,37.00
2018-02-25T08:29:16.609Z,37.03
2018-02-25T08:31:49.684Z,36.75
2018-02-25T08:34:21.974Z,36.26
2018-02-25T08:39:29.939Z,34.75
2018-02-25T08:42:01.398Z,34.45
2018-02-25T08:44:33.051Z,34.40
2018-02-25T08:47:05.527Z,33.87
2018-02-25T08:49:37.069Z,32.95
2018-02-25T08:52:10.169Z,32.88
2018-02-25T08:54:44.043Z,32.47
2018-02-25T08:57:15.580Z,31.78
2018-02-25T08:59:47.017Z,30.37
2018-02-25T09:02:19.010Z,30.59
2018-02-25T09:04:50.884Z,30.69
2018-02-25T09:07:23.664Z,30.04
2018-02-25T09:09:56.232Z,29.72
2018-02-25T09:12:27.498Z,29.21
2018-02-25T09:15:00.182Z,29.26
2018-02-25T09:17:34.030Z,28.84
2018-02-25T09:20:05.836Z,28.74
2018-02-25T09:22:37.390Z,27.80
2018-02-25T09:25:09.476Z,27.22
2018-02-25T09:27:41.770Z,26.81
2018-02-25T09:30:16.180Z,26.74
2018-02-25T09:32:47.558Z,26.29
2018-02-25T09:35:19.283Z,26.10
2018-02-25T09:37:50.571Z,26.18
2018-02-25T09:40:22.228Z,26.52
2018-02-25T09:42:56.756Z,25.51
2018-02-25T09:45:29.202Z,24.25
2018-02-25T09:48:01.198Z,24.27
2018-02-25T09:50:32.622Z,23.95
2018-02-25T09:53:04.276Z,22.95
2018-02-25T09:55:35.802Z,22.52
2018-02-25T09:58:08.248Z,22.45
2018-02-25T10:00:41.356Z,22.74
2018-02-25T10:03:14.774Z,22.54
2018-02-25T10:05:49.067Z,22.30
2018-02-25T10:08:20.813Z,21.19
2018-02-25T10:10:57.752Z,22.45
2018-02-25T10:13:29.103Z,22.55
2018-02-25T10:16:01.083Z,22.04
2018-02-25T10:18:55.775Z,21.65
2018-02-25T10:21:30.606Z,21.87
2018-02-25T10:24:03.949Z,21.16
2018-02-25T10:26:35.393Z,21.85
2018-02-25T10:29:13.038Z,22.25
2018-02-25T10:31:45.374Z,22.04
2018-02-25T10:34:17.166Z,21.01
2018-02-25T10:36:52.193Z,20.99
2018-02-25T10:39:26.310Z,21.10
2018-02-25T10:42:06.714Z,20.75
2018-02-25T10:44:38.810Z,21.28
2018-02-25T10:47:10.966Z,21.09
2018-02-25T10:49:42.886Z,21.22
2018-02-25T10:52:14.866Z,20.71
2018-02-25T10:54:46.527Z,19.95
2018-02-25T10:57:18.050Z,20.44
2018-02-25T10:59:51.718Z,20.71
2018-02-25T11:02:23.405Z,20.72
2018-02-25T11:04:57.615Z,20.56
2018-02-25T11:07:28.695Z,20.71
2018-02-25T11:10:06.093Z,20.54
2018-02-25T11:12:37.949Z,20.38
2018-02-25T11:15:13.775Z,20.52
2018-02-25T11:17:46.163Z,21.15
2018-02-25T11:20:17.632Z,21.20
2018-02-25T11:22:50.756Z,21.49
2018-02-25T11:25:22.113Z,21.65
2018-02-25T11:28:03.445Z,21.32
2018-02-25T11:30:36.002Z,21.02
2018-02-25T11:33:09.385Z,20.57
2018-02-25T11:35:42.256Z,20.65
2018-02-25T11:38:14.901Z,20.70
2018-02-25T11:40:46.550Z,20.65
2018-02-25T11:43:18.699Z,21.08
2018-02-25T11:45:52.158Z,21.24
2018-02-25T11:48:23.502Z,21.12
2018-02-25T11:50:58.583Z,20.69
2018-02-25T11:53:32.395Z,20.81
2018-02-25T11:56:05.728Z,21.36
2018-02-25T11:58:38.391Z,21.59
2018-02-25T12:01:11.131Z,21.77
2018-02-25T12:03:43.392Z,21.81
2018-02-25T12:06:16.199Z,22.26
2018-02-25T12:08:54.860Z,22.40
2018-02-25T12:11:27.910Z,22.45
2018-02-25T12:14:00.792Z,23.00
2018-02-25T12:16:32.730Z,22.76
2018-02-25T12:19:04.810Z,22.80
2018-02-25T12:21:36.820Z,23.05
2018-02-25T12:24:08.027Z,23.69
2018-02-25T12:26:41.275Z,23.71
2018-02-25T12:29:12.743Z,23.70
2018-02-25T12:31:44.287Z,23.96
2018-02-25T12:34:16.215Z,23.94
2018-02-25T12:36:48.345Z,23.00
2018-02-25T12:39:20.550Z,23.19
2018-02-25T12:41:53.247Z,23.33
2018-02-25T12:44:28.084Z,23.44
2018-02-25T12:47:01.241Z,23.65
2018-02-25T12:49:32.835Z,23.76
2018-02-25T12:52:08.953Z,23.85
2018-02-25T12:54:41.276Z,24.13
2018-02-25T12:57:30.985Z,24.21
2018-02-25T13:00:07.044Z,24.21
2018-02-25T13:02:38.831Z,24.21
2018-02-25T13:05:11.663Z,24.07
2018-02-25T13:07:43.195Z,24.11
2018-02-25T13:10:15.305Z,24.00
2018-02-25T13:12:46.984Z,24.38
2018-02-25T13:15:22.211Z,24.74
2018-02-25T13:17:54.835Z,24.27
2018-02-25T13:20:26.146Z,24.05
2018-02-25T13:22:58.187Z,23.93
2018-02-25T13:25:31.082Z,23.57
2018-02-25T13:28:03.963Z,23.69
2018-02-25T13:30:36.681Z,24.10
2018-02-25T13:33:08.038Z,24.01
2018-02-25T13:35:39.742Z,24.37
2018-02-25T13:38:11.376Z,24.07
2018-02-25T13:40:42.836Z,23.88
2018-02-25T13:43:14.173Z,24.14
2018-02-25T13:45:46.829Z,24.11
2018-02-25T13:48:18.169Z,23.88
2018-02-25T13:50:49.806Z,24.44
2018-02-25T13:53:21.406Z,24.34
2018-02-25T13:55:52.818Z,24.54
2018-02-25T13:58:26.620Z,24.56
2018-02-25T14:01:02.037Z,25.05
2018-02-25T14:03:37.330Z,25.42
2018-02-25T14:06:09.075Z,25.27
2018-02-25T14:08:40.565Z,25.49
2018-02-25T14:11:18.625Z,25.15
2018-02-25T14:13:50.538Z,25.61
2018-02-25T14:16:21.982Z,25.10
2018-02-25T14:18:55.905Z,25.58
2018-02-25T14:21:32.600Z,25.46
2018-02-25T14:24:12.580Z,25.32
2018-02-25T14:26:45.121Z,25.25
2018-02-25T14:29:17.178Z,25.52
2018-02-25T14:31:49.212Z,25.77
2018-02-25T14:34:20.505Z,25.88
2018-02-25T14:36:51.811Z,25.84
2018-02-25T14:39:23.460Z,25.95
2018-02-25T14:41:55.257Z,25.94
2018-02-25T14:44:26.555Z,25.84
2018-02-25T14:46:58.950Z,25.66
2018-02-25T14:49:30.287Z,25.84
2018-02-25T14:52:04.087Z,25.75
2018-02-25T14:54:35.687Z,25.84
2018-02-25T14:57:08.022Z,25.86
2018-02-25T15:02:17.778Z,26.29
2018-02-25T15:04:49.642Z,26.64
2018-02-25T15:07:21.645Z,26.64
2018-02-25T15:09:55.091Z,26.65
2018-02-25T15:12:26.300Z,26.45
2018-02-25T15:14:58.159Z,26.67
2018-02-25T15:17:29.854Z,26.45
2018-02-25T15:20:04.418Z,26.36
2018-02-25T15:22:35.901Z,26.06
2018-02-25T15:25:07.965Z,26.30
2018-02-25T15:27:40.340Z,26.36
2018-02-25T15:30:14.948Z,26.51
2018-02-25T15:32:50.374Z,26.77
2018-02-25T15:35:22.352Z,26.78
2018-02-25T15:37:54.388Z,26.91
2018-02-25T15:40:25.853Z,27.19
2018-02-25T15:42:57.244Z,27.02
2018-02-25T15:45:29.491Z,26.74
2018-02-25T15:48:00.653Z,26.58
2018-02-25T15:50:32.675Z,26.42
2018-02-25T15:53:05.435Z,26.65
2018-02-25T15:55:37.653Z,26.66
2018-02-25T15:58:09.947Z,26.80
2018-02-25T16:00:42.350Z,26.89
2018-02-25T16:03:13.683Z,27.00
2018-02-25T16:05:45.026Z,27.76
2018-02-25T16:08:17.384Z,27.21
2018-02-25T16:10:49.467Z,27.61
2018-02-25T16:13:22.252Z,27.72
2018-02-25T16:15:54.919Z,27.94
2018-02-25T16:18:26.606Z,28.01
2018-02-25T16:20:59.470Z,28.03
2018-02-25T16:23:32.761Z,28.05
2018-02-25T16:26:06.354Z,27.84
2018-02-25T16:28:39.927Z,27.77
2018-02-25T16:31:15.428Z,28.12
2018-02-25T16:33:48.602Z,28.68
2018-02-25T16:36:20.431Z,29.15
2018-02-25T16:38:53.420Z,29.13
2018-02-25T16:41:25.719Z,29.06
2018-02-25T16:44:00.029Z,28.81
2018-02-25T16:46:40.123Z,29.11
2018-02-25T16:49:24.492Z,29.34
2018-02-25T16:51:57.554Z,29.81
2018-02-25T16:54:31.508Z,29.93
2018-02-25T16:57:04.669Z,30.10
2018-02-25T16:59:39.276Z,30.38
2018-02-25T17:02:14.782Z,30.41
2018-02-25T17:04:46.356Z,30.40
2018-02-25T17:07:18.155Z,30.37
2018-02-25T17:09:50.238Z,30.28
2018-02-25T17:12:23.128Z,30.43
2018-02-25T17:14:54.814Z,30.69
2018-02-25T17:17:27.905Z,30.66
2018-02-25T17:20:03.424Z,30.94
2018-02-25T17:22:35.473Z,31.21
2018-02-25T17:25:06.506Z,31.41
2018-02-25T17:27:38.563Z,31.56
2018-02-25T17:30:09.919Z,31.59
2018-02-25T17:32:44.194Z,31.65
2018-02-25T17:35:18.615Z,31.74
2018-02-25T17:37:49.609Z,31.88
2018-02-25T17:40:22.685Z,31.98
2018-02-25T17:42:54.717Z,31.91
2018-02-25T17:45:27.671Z,31.96
2018-02-25T17:48:00.874Z,31.94
2018-02-25T17:50:33.211Z,31.92
2018-02-25T17:53:09.554Z,31.93
2018-02-25T17:55:41.470Z,32.27
2018-02-25T17:58:14.822Z,32.38
2018-02-25T18:00:48.733Z,32.33
2018-02-25T18:03:24.267Z,32.41
2018-02-25T18:05:57.749Z,32.59
2018-02-25T18:08:30.024Z,32.45
2018-02-25T18:11:01.276Z,32.64
2018-02-25T18:13:33.465Z,32.80
2018-02-25T18:16:05.695Z,33.06
2018-02-25T18:18:37.350Z,33.15
2018-02-25T18:21:09.324Z,33.46
2018-02-25T18:23:41.433Z,33.81
2018-02-25T18:26:12.410Z,34.04
2018-02-25T18:28:46.057Z,34.04
2018-02-25T18:31:18.303Z,34.25
2018-02-25T18:33:50.590Z,34.21
2018-02-25T18:36:25.236Z,34.41
2018-02-25T18:38:57.913Z,34.80
2018-02-25T18:41:29.612Z,34.92
2018-02-25T18:44:05.541Z,35.02
2018-02-25T18:46:41.250Z,35.11
2018-02-25T18:49:14.588Z,35.10
2018-02-25T18:51:50.133Z,35.31
2018-02-25T18:54:28.953Z,35.60
2018-02-25T18:57:10.415Z,35.67
2018-02-25T18:59:43.057Z,35.83
2018-02-25T19:02:15.326Z,36.08
2018-02-25T19:04:47.258Z,36.76
2018-02-25T19:07:19.210Z,36.66
2018-02-25T19:09:50.422Z,36.83
2018-02-25T19:12:22.862Z,37.06
2018-02-25T19:15:04.057Z,37.33
2018-02-25T19:17:44.557Z,38.49
2018-02-25T19:20:16.413Z,39.19
2018-02-25T19:22:48.886Z,39.82
2018-02-25T19:25:20.046Z,40.63
2018-02-25T19:27:51.970Z,41.03
2018-02-25T19:30:24.341Z,41.29
2018-02-25T19:32:56.546Z,41.14
2018-02-25T19:35:34.080Z,41.13
2018-02-25T19:40:17.779Z,41.33
2018-02-25T19:42:50.544Z,42.11
2018-02-25T19:45:23.653Z,42.50
2018-02-25T19:47:55.940Z,43.11
2018-02-25T19:50:28.872Z,43.33
2018-02-25T19:53:01.146Z,43.28
2018-02-25T19:55:33.791Z,43.06
2018-02-25T19:58:06.548Z,42.99
2018-02-25T20:00:40.116Z,42.90
2018-02-25T20:03:12.694Z,42.69
2018-02-25T20:05:48.619Z,42.63
2018-02-25T20:08:20.934Z,42.66
2018-02-25T20:10:53.440Z,42.42
2018-02-25T20:13:25.805Z,42.45
2018-02-25T20:15:58.095Z,42.33
2018-02-25T20:18:32.743Z,42.28
2018-02-25T20:21:03.870Z,42.21
2018-02-25T20:23:39.512Z,42.20
2018-02-25T20:26:11.936Z,41.90
2018-02-25T20:28:44.765Z,42.08
2018-02-25T20:31:18.263Z,41.99
2018-02-25T20:33:50.400Z,41.85
2018-02-25T20:36:23.577Z,42.05
2018-02-25T20:38:55.878Z,42.26
2018-02-25T20:41:29.178Z,42.36
2018-02-25T20:44:00.969Z,42.33
2018-02-25T20:46:35.775Z,42.61
2018-02-25T20:49:07.693Z,42.72
2018-02-25T20:51:40.234Z,43.20
2018-02-25T20:54:11.930Z,43.22
2018-02-25T20:56:44.270Z,43.56
2018-02-25T20:59:16.987Z,43.53
2018-02-25T21:01:50.606Z,43.45
2018-02-25T21:04:24.078Z,43.55
2018-02-25T21:06:59.398Z,43.54
2018-02-25T21:12:40.195Z,43.78
2018-02-25T21:15:19.735Z,43.77
2018-02-25T21:18:06.427Z,43.89
2018-02-25T21:20:53.543Z,43.71
2018-02-25T21:23:30.327Z,43.78
2018-02-25T21:26:05.932Z,43.96
2018-02-25T21:28:43.000Z,44.23
2018-02-25T21:31:17.216Z,44.42
2018-02-25T21:34:01.029Z,44.85
2018-02-25T21:36:36.971Z,44.69
2018-02-25T21:39:10.681Z,44.71
2018-02-25T21:41:42.801Z,45.04
2018-02-25T21:44:16.700Z,45.25
2018-02-25T21:46:52.133Z,45.40
2018-02-25T21:50:04.956Z,45.63
2018-02-25T21:52:49.877Z,45.61
2018-02-25T21:55:26.393Z,45.68
2018-02-25T22:00:09.669Z,45.88
2018-02-25T22:03:52.982Z,46.00
2018-02-25T22:06:25.310Z,46.07
2018-02-25T22:08:58.744Z,46.35
2018-02-25T22:14:11.224Z,46.83
2018-02-25T22:17:02.169Z,46.81
2018-02-25T22:19:48.290Z,47.02
2018-02-25T22:22:21.624Z,47.29
2018-02-25T22:24:55.148Z,47.29
2018-02-25T22:30:16.560Z,47.71
2018-02-25T22:33:01.880Z,47.77
2018-02-25T22:35:34.676Z,47.93
2018-02-25T22:38:09.747Z,48.05
2018-02-25T22:40:52.948Z,48.25
2018-02-25T22:43:25.939Z,48.46
2018-02-25T22:46:06.214Z,48.71
2018-02-25T22:48:50.093Z,48.45
2018-02-25T22:51:25.470Z,48.34
2018-02-25T22:54:15.363Z,48.52
2018-02-25T22:57:12.896Z,48.67
2018-02-25T22:59:54.712Z,48.68
2018-02-25T23:02:31.764Z,49.35
2018-02-25T23:05:23.383Z,48.86
2018-02-25T23:08:13.032Z,49.00
2018-02-25T23:10:54.138Z,49.09
2018-02-25T23:14:00.880Z,48.87
2018-02-25T23:16:35.198Z,49.11
2018-02-25T23:19:06.962Z,48.98
2018-02-25T23:21:40.858Z,49.04
2018-02-25T23:26:55.909Z,49.34
2018-02-25T23:29:34.273Z,49.27
2018-02-25T23:32:14.238Z,49.01
2018-02-25T23:35:05.047Z,48.90
2018-02-25T23:37:38.516Z,49.00
2018-02-25T23:40:11.058Z,49.05
2018-02-25T23:42:43.591Z,49.46
2018-02-25T23:45:22.156Z,49.72
2018-02-25T23:47:57.553Z,49.72
2018-02-25T23:50:49.271Z,49.77
2018-02-25T23:53:21.723Z,49.84
2018-02-25T23:55:53.491Z,49.83
2018-02-25T23:58:25.133Z,49.88
